North Platte, NE (69101)

4:47 PM CDT on September 20, 2017 (GMT -0500)
K0KDC North Platte | | Change Station
Active Advisory: Fire Weather Warning

Elev 2808 ft 41.14 °N, 100.77 °W | Updated 48 seconds ago

Clear
Clear
75.4 °F
Feels Like 77 °F
N
4.0
Wind Variable Wind from ENE
Gusts 10.0 mph

Today
High -- | Low -- °F
--% Chance of Precip.
Yesterday
High -- | Low -- °F
Precip. -- in
Pressure 29.84 in
Visibility 10.0 miles
Clouds Clear
Heat Index 77 °F
Dew Point 39 °F
Humidity 27%
Rainfall 0.00 in
Snow Depth Not available.
7:28 AM 7:43 PM
New Moon, 1% visible
METAR KLBF 202053Z AUTO 06003KT 10SM CLR 24/01 A2988 RMK AO2 SLP104 T02440006 58016
Pressure 29.84 in
Visibility 10.0 miles
Clouds Clear
Heat Index 77 °F
Dew Point 39 °F
Humidity 27%
Rainfall 0.00 in
Snow Depth Not available.
7:28 AM 7:43 PM
New Moon, 1% visible
METAR KLBF 202053Z AUTO 06003KT 10SM CLR 24/01 A2988 RMK AO2 SLP104 T02440006 58016

Get Your Daily Forecast Email!

Thanks for signing up!

Be on the lookout for a verification email in your inbox.

You'll start receiving severe weather alerts in your inbox..

×

10-Day Weather Forecast

Almanac

Astronomy

Sep. 20, 2017 Rise Set
Actual Time
Civil Twilight
Nautical Twilight
Astronomical Twilight
Moon
Length of Visible Light
Length of Day
Tomorrow will be .
, % of the Moon is Illuminated

Today's Extremes

State Highs State Lows

Community

WunderPhotos

Category 6

Welcome to Category 6. This is the collective home for Weather Underground's featured writeups by Dr. Jeff Masters (right), Bob Henson (left), Chris Burt, and other regular contributors.

Nearby

Air Quality

  Air Quality AQ Index Pollutant
Not available.

Snow Depth

Station Depth Elevation

Earthquake Activity

City Distance Mag. Time & Date
Minimum magnitude displayed is 2.5.

Coastal Water Temperatures

Place Temperature

Stations

Nearby Weather Stations

Station Location Temp. Windchill Dew Point Humidity Wind Precip. Elev Updated Type
                   

Watches & Warnings

Fire Weather Warning
Issued: 2:41 PM MDT Sep. 20, 2017 – National Weather Service

... Red flag warning in effect from noon to 7 PM MDT Thursday for
low relative humidity values and gusty winds for fire weather
zone 210...

The National Weather Service in North Platte has issued a red
flag warning, which is in effect from noon to 7 PM MDT Thursday.
The Fire Weather Watch is no longer in effect.

* Affected area... fire weather zone 210.

* Wind... south at 15 to 25 mph with higher gusts.

* Humidity... minimum relative humidity 10 to 15 percent.

* Impacts... this combination of gusty winds and low relative
humidities would produce critical fire weather conditions.

Precautionary/preparedness actions...

A red flag warning means that critical fire weather conditions
are either occurring now, or will shortly. A combination of
strong winds, low relative humidity, and warm temperatures can
contribute to extreme fire behavior.



Jws